Time;durP1;ratioP1;P1;durP2;ratioP2;P2;SDS_P1;SDS_P2;PMS_P1;PMS_P2;Temp;Humidity;BMP_temperature;BMP_pressure;BME280_temperature;BME280_humidity;BME280_pressure;Samples;Min_cycle;Max_cycle;Signal;HPM_P1;HPM_P2
2022/09/09 00:02:04;;;;;;;4.60;3.33;;;14.60;99.90;;;;;;4983594;28;20048;-75
2022/09/09 00:04:36;;;;;;;6.30;3.60;;;14.60;99.90;;;;;;4989427;28;20072;-75
2022/09/09 00:07:17;;;;;;;12.68;4.50;;;14.50;99.90;;;;;;4989446;28;20485;-76
2022/09/09 00:09:50;;;;;;;7.53;4.18;;;14.50;99.90;;;;;;4986552;28;20182;-75
2022/09/09 00:12:36;;;;;;;11.88;4.28;;;14.50;99.90;;;;;;4988837;28;20127;-75
2022/09/09 00:15:11;;;;;;;7.15;4.65;;;14.50;99.90;;;;;;4989423;28;20048;-76
2022/09/09 00:17:45;;;;;;;11.55;4.80;;;14.50;99.90;;;;;;4973119;28;20060;-75
2022/09/09 00:20:57;;;;;;;9.75;4.25;;;14.40;99.90;;;;;;4973243;28;20204;-76
2022/09/09 00:23:36;;;;;;;9.18;4.38;;;14.40;99.90;;;;;;4980596;28;20053;-76
2022/09/09 00:26:20;;;;;;;7.35;4.45;;;14.40;99.90;;;;;;4986222;28;20417;-76
2022/09/09 00:28:54;;;;;;;11.55;5.35;;;14.30;99.90;;;;;;4970334;28;20038;-76
2022/09/09 00:31:28;;;;;;;10.18;4.63;;;14.30;99.90;;;;;;4985538;28;20090;-76
2022/09/09 00:33:55;;;;;;;9.20;4.72;;;14.30;99.90;;;;;;4985038;28;20161;-75
2022/09/09 00:36:26;;;;;;;13.40;5.13;;;14.30;99.90;;;;;;4953182;28;20485;-76
2022/09/09 00:38:56;;;;;;;12.40;5.60;;;14.30;99.90;;;;;;4971503;28;20047;-76
2022/09/09 00:41:26;;;;;;;8.20;4.68;;;14.20;99.90;;;;;;4966083;28;20062;-76
2022/09/09 00:44:13;;;;;;;11.48;6.05;;;14.20;99.90;;;;;;4969105;28;20050;-76
2022/09/09 00:47:06;;;;;;;9.90;5.07;;;14.20;99.90;;;;;;4970006;28;20787;-76
2022/09/09 00:49:42;;;;;;;11.38;4.90;;;14.20;99.90;;;;;;4968847;28;20133;-76
2022/09/09 00:52:30;;;;;;;11.75;5.38;;;14.10;99.90;;;;;;4985782;28;20046;-76
2022/09/09 00:55:05;;;;;;;10.68;4.63;;;14.10;99.90;;;;;;4969834;28;20457;-77
2022/09/09 00:57:33;;;;;;;12.98;5.78;;;14.10;99.90;;;;;;4968757;28;20483;-75
2022/09/09 01:00:18;;;;;;;8.82;5.28;;;14.00;99.90;;;;;;4970413;28;20042;-76
2022/09/09 01:02:59;;;;;;;6.38;5.00;;;14.00;99.90;;;;;;4971464;28;20081;-76
2022/09/09 01:06:05;;;;;;;9.73;4.70;;;14.00;99.90;;;;;;4968554;28;20701;-76
2022/09/09 01:08:58;;;;;;;12.63;5.63;;;14.00;99.90;;;;;;4983705;28;20047;-77
2022/09/09 01:12:07;;;;;;;10.00;4.65;;;13.90;99.90;;;;;;4956921;28;20050;-76
2022/09/09 01:14:36;;;;;;;7.85;4.40;;;13.90;99.90;;;;;;4920705;29;20048;-76
2022/09/09 01:17:15;;;;;;;13.65;4.95;;;14.00;99.90;;;;;;4963490;28;20054;-76
2022/09/09 01:19:44;;;;;;;12.50;5.00;;;13.90;99.90;;;;;;4968090;28;20425;-76
2022/09/09 01:22:25;;;;;;;11.57;4.80;;;13.90;99.90;;;;;;4969124;28;20137;-76
2022/09/09 01:25:13;;;;;;;8.10;4.80;;;13.90;99.90;;;;;;4984067;28;20142;-76
2022/09/09 01:27:41;;;;;;;9.48;4.60;;;13.80;99.90;;;;;;4975956;28;20043;-75
2022/09/09 01:30:12;;;;;;;11.05;4.57;;;13.80;99.90;;;;;;4965532;28;20042;-75
2022/09/09 01:32:42;;;;;;;17.13;4.55;;;13.80;99.90;;;;;;4984467;28;20401;-76
2022/09/09 01:35:30;;;;;;;12.50;4.82;;;13.70;99.90;;;;;;4985320;28;20042;-76
2022/09/09 01:37:56;;;;;;;10.63;4.93;;;13.70;99.90;;;;;;4985097;28;20046;-76
2022/09/09 01:40:22;;;;;;;13.68;5.10;;;13.70;99.90;;;;;;4967428;28;20042;-76
2022/09/09 01:42:48;;;;;;;15.60;5.28;;;13.60;99.90;;;;;;4985198;28;20046;-76
2022/09/09 01:45:14;;;;;;;8.98;4.57;;;13.60;99.90;;;;;;4952436;28;20639;-76
2022/09/09 01:47:40;;;;;;;10.93;5.10;;;13.60;99.90;;;;;;4969109;28;20157;-77
2022/09/09 01:50:11;;;;;;;8.85;4.70;;;13.60;99.90;;;;;;4966919;28;20077;-77
2022/09/09 01:52:37;;;;;;;12.80;5.22;;;13.60;99.90;;;;;;4965558;28;20515;-76
2022/09/09 01:55:04;;;;;;;7.20;4.75;;;13.60;99.90;;;;;;4965766;28;20050;-76
2022/09/09 01:57:54;;;;;;;12.82;6.25;;;13.50;99.90;;;;;;4984507;28;20405;-76
2022/09/09 02:00:20;;;;;;;16.92;7.40;;;13.50;99.90;;;;;;4968934;28;20050;-76
2022/09/09 02:03:02;;;;;;;13.93;5.72;;;13.50;99.90;;;;;;4981823;28;20052;-76
2022/09/09 02:06:04;;;;;;;10.40;5.13;;;13.50;99.90;;;;;;4968996;28;20144;-75
2022/09/09 02:08:47;;;;;;;6.53;5.05;;;13.50;99.90;;;;;;4972442;28;20397;-76
2022/09/09 02:11:19;;;;;;;7.43;5.05;;;13.50;99.90;;;;;;4962289;28;20043;-76
2022/09/09 02:13:47;;;;;;;11.05;5.20;;;13.50;99.90;;;;;;4965420;28;20055;-76
2022/09/09 02:16:28;;;;;;;20.38;6.63;;;13.50;99.90;;;;;;5000389;28;20045;-77
2022/09/09 02:18:57;;;;;;;10.13;5.35;;;13.50;99.90;;;;;;4968181;28;20054;-77
2022/09/09 02:21:25;;;;;;;6.60;5.38;;;13.50;99.90;;;;;;4966298;28;20144;-76
2022/09/09 02:23:53;;;;;;;11.98;5.47;;;13.50;99.90;;;;;;4964432;28;20416;-77
2022/09/09 02:26:21;;;;;;;10.45;5.30;;;13.50;99.90;;;;;;4950288;28;20066;-76
2022/09/09 02:28:53;;;;;;;7.40;5.20;;;13.50;99.90;;;;;;4981357;28;20383;-76
2022/09/09 02:31:22;;;;;;;8.05;5.30;;;13.50;99.90;;;;;;4966920;28;20093;-76
2022/09/09 02:34:00;;;;;;;10.52;5.45;;;13.50;99.90;;;;;;4965265;28;20050;-76
2022/09/09 02:36:30;;;;;;;10.23;5.25;;;13.60;99.90;;;;;;4949268;28;20046;-75
2022/09/09 02:38:56;;;;;;;9.95;5.40;;;13.60;99.90;;;;;;4955147;28;20051;-75
2022/09/09 02:41:34;;;;;;;11.38;5.35;;;13.60;99.90;;;;;;4945727;28;20046;-76
2022/09/09 02:44:00;;;;;;;7.22;5.13;;;13.70;99.90;;;;;;4949599;28;20554;-76
2022/09/09 02:46:35;;;;;;;7.40;5.18;;;13.70;99.90;;;;;;4964687;28;20130;-76
2022/09/09 02:49:09;;;;;;;10.65;5.55;;;13.60;99.90;;;;;;4957953;28;20046;-76
2022/09/09 02:52:05;;;;;;;10.63;5.68;;;13.60;99.90;;;;;;4971113;28;20051;-75
2022/09/09 02:54:33;;;;;;;12.32;6.32;;;13.70;99.90;;;;;;4968248;28;20713;-76
2022/09/09 02:57:19;;;;;;;10.45;5.13;;;13.60;99.90;;;;;;4952511;28;20046;-76
2022/09/09 02:59:46;;;;;;;10.02;5.60;;;13.60;99.90;;;;;;4977970;28;20054;-75
2022/09/09 03:02:12;;;;;;;10.30;5.47;;;13.60;99.90;;;;;;4964942;28;20114;-76
2022/09/09 03:04:39;;;;;;;9.75;5.63;;;13.60;99.90;;;;;;4984173;28;20501;-76
2022/09/09 03:07:05;;;;;;;9.70;4.95;;;13.60;99.90;;;;;;4968003;28;20043;-76
2022/09/09 03:09:32;;;;;;;13.23;5.35;;;13.60;99.90;;;;;;4953615;28;20051;-76
2022/09/09 03:11:58;;;;;;;9.02;4.85;;;13.60;99.90;;;;;;4964179;28;20066;-76
2022/09/09 03:14:25;;;;;;;19.67;5.60;;;13.60;99.90;;;;;;4966899;28;20058;-76
2022/09/09 03:16:51;;;;;;;16.63;6.15;;;13.60;99.90;;;;;;4967675;28;20046;-76
2022/09/09 03:19:18;;;;;;;11.98;5.38;;;13.70;99.90;;;;;;4968155;28;20046;-76
2022/09/09 03:21:45;;;;;;;8.48;5.32;;;13.70;99.90;;;;;;4966288;28;20120;-76
2022/09/09 03:24:11;;;;;;;14.20;5.72;;;13.70;99.90;;;;;;4985594;28;20039;-76
2022/09/09 03:26:37;;;;;;;8.38;5.00;;;13.70;99.90;;;;;;4972044;28;20037;-76
2022/09/09 03:29:06;;;;;;;11.77;4.78;;;13.70;99.90;;;;;;4970337;28;20460;-76
2022/09/09 03:31:36;;;;;;;8.40;4.82;;;13.70;99.90;;;;;;5002770;28;20058;-76
2022/09/09 03:34:01;;;;;;;;;;;13.80;99.90;;;;;;4967980;28;20560;-76
2022/09/09 03:36:28;;;;;;;6.05;3.85;;;13.80;99.90;;;;;;5000899;28;19926;-76
2022/09/09 03:38:54;;;;;;;10.32;4.60;;;13.80;99.90;;;;;;5003268;28;20458;-76
2022/09/09 03:41:23;;;;;;;12.50;4.65;;;13.80;99.90;;;;;;4970969;28;20496;-76
2022/09/09 03:43:53;;;;;;;7.28;3.97;;;13.90;99.90;;;;;;4969212;28;20121;-76
2022/09/09 03:46:23;;;;;;;;;;;13.90;99.90;;;;;;4955020;28;20116;-76
2022/09/09 03:48:48;;;;;;;9.73;3.38;;;14.00;99.90;;;;;;4970782;28;19921;-76
2022/09/09 03:51:15;;;;;;;7.43;3.70;;;14.00;99.90;;;;;;4970375;28;20104;-77
2022/09/09 03:53:42;;;;;;;9.00;3.45;;;14.00;99.90;;;;;;4954943;28;20045;-75
2022/09/09 03:56:09;;;;;;;7.07;3.70;;;14.10;99.90;;;;;;5002697;28;20100;-78
2022/09/09 03:58:36;;;;;;;14.30;4.03;;;14.10;99.90;;;;;;4986059;28;20420;-76
2022/09/09 04:01:08;;;;;;;7.57;3.88;;;14.10;99.90;;;;;;4986542;28;20379;-75
2022/09/09 04:03:34;;;;;;;7.80;3.42;;;14.20;99.90;;;;;;4986043;28;20038;-76
2022/09/09 04:06:03;;;;;;;7.90;3.00;;;14.20;99.90;;;;;;4969217;28;20049;-76
2022/09/09 04:08:32;;;;;;;8.05;3.00;;;14.20;99.90;;;;;;4986406;28;20104;-77
2022/09/09 04:11:00;;;;;;;10.00;3.38;;;14.20;99.90;;;;;;4970309;28;20501;-76
2022/09/09 04:13:26;;;;;;;6.85;3.10;;;14.20;99.90;;;;;;4970564;28;20050;-76
2022/09/09 04:15:57;;;;;;;7.85;2.92;;;14.30;99.90;;;;;;4952533;28;20084;-77
2022/09/09 04:18:23;;;;;;;5.95;2.53;;;14.30;99.90;;;;;;4972294;28;20046;-77
2022/09/09 04:20:53;;;;;;;7.82;2.85;;;14.30;99.90;;;;;;4971667;28;20046;-77
2022/09/09 04:23:20;;;;;;;7.90;2.80;;;14.30;99.90;;;;;;4982720;28;20050;-77
2022/09/09 04:25:51;;;;;;;9.43;2.60;;;14.40;99.90;;;;;;4967259;28;20054;-77
2022/09/09 04:28:18;;;;;;;7.78;2.30;;;14.40;99.90;;;;;;4984936;28;20542;-77
2022/09/09 04:30:45;;;;;;;5.70;2.20;;;14.40;99.90;;;;;;4988727;28;20388;-77
2022/09/09 04:33:11;;;;;;;7.45;2.30;;;14.40;99.90;;;;;;4970699;28;20061;-77
2022/09/09 04:35:38;;;;;;;3.17;1.83;;;14.40;99.90;;;;;;4960931;28;20039;-77
2022/09/09 04:38:04;;;;;;;11.57;2.78;;;14.40;99.90;;;;;;5001610;28;20045;-79
2022/09/09 04:40:31;;;;;;;5.18;2.05;;;14.40;99.90;;;;;;4996732;28;20046;-78
2022/09/09 04:43:01;;;;;;;6.10;2.45;;;14.50;99.90;;;;;;4972477;28;20050;-79
2022/09/09 04:45:26;;;;;;;;;;;14.50;99.90;;;;;;4973955;28;20140;-79
2022/09/09 04:47:53;;;;;;;4.85;2.10;;;14.50;99.90;;;;;;4988619;28;20016;-79
2022/09/09 04:50:19;;;;;;;5.72;1.60;;;14.50;99.90;;;;;;4988910;28;20034;-81
2022/09/09 04:52:47;;;;;;;5.32;1.77;;;14.50;99.90;;;;;;4987164;28;20500;-79
2022/09/09 04:55:17;;;;;;;9.30;2.45;;;14.50;99.90;;;;;;5005251;28;20125;-80
2022/09/09 04:57:43;;;;;;;8.25;2.10;;;14.50;99.90;;;;;;4957982;28;20337;-80
2022/09/09 05:00:13;;;;;;;10.20;3.15;;;14.50;99.90;;;;;;4987636;28;20452;-81
2022/09/09 05:02:48;;;;;;;9.13;2.47;;;14.50;99.90;;;;;;4973845;28;20037;-82
2022/09/09 05:05:13;;;;;;;8.10;2.50;;;14.50;99.90;;;;;;4987916;28;20085;-81
2022/09/09 05:07:39;;;;;;;7.30;2.28;;;14.50;99.90;;;;;;4956188;28;20081;-83
2022/09/09 05:10:05;;;;;;;8.82;2.20;;;14.50;99.90;;;;;;4946094;28;20046;-81
2022/09/09 05:12:32;;;;;;;6.32;2.13;;;14.50;99.90;;;;;;4984392;28;20124;-82
2022/09/09 05:14:57;;;;;;;6.65;1.95;;;14.50;99.90;;;;;;4972593;28;20045;-81
2022/09/09 05:17:24;;;;;;;8.82;2.50;;;14.50;99.90;;;;;;4972269;28;20480;-83
2022/09/09 05:19:49;;;;;;;8.80;2.70;;;14.50;99.90;;;;;;4988778;28;20034;-86
2022/09/09 05:22:20;;;;;;;7.13;2.47;;;14.50;99.90;;;;;;4967572;28;20061;-87
2022/09/09 05:24:45;;;;;;;9.35;2.65;;;14.50;99.90;;;;;;4969117;28;20429;-83
2022/09/09 05:27:12;;;;;;;4.78;2.40;;;14.50;99.90;;;;;;4981203;28;20615;-86
2022/09/09 05:29:41;;;;;;;6.20;2.38;;;14.50;99.90;;;;;;4947575;28;20077;-84
2022/09/09 05:32:06;;;;;;;4.70;2.33;;;14.50;99.90;;;;;;4977242;28;20409;-84
2022/09/09 05:34:32;;;;;;;6.32;2.50;;;14.50;99.90;;;;;;4924736;28;20302;-83
2022/09/09 05:36:58;;;;;;;5.45;2.42;;;14.50;99.90;;;;;;4953076;28;20045;-83
2022/09/09 05:39:24;;;;;;;7.40;2.95;;;14.50;99.90;;;;;;4984656;28;20421;-83
2022/09/09 05:41:51;;;;;;;10.73;3.30;;;14.50;99.90;;;;;;4944837;28;20038;-83
2022/09/09 05:44:16;;;;;;;5.78;3.67;;;14.50;99.90;;;;;;4952469;28;20116;-83
2022/09/09 05:46:42;;;;;;;6.25;3.67;;;14.50;99.90;;;;;;4968541;28;20042;-83
2022/09/09 05:49:08;;;;;;;6.28;3.38;;;14.50;99.90;;;;;;4950428;28;20625;-84
2022/09/09 05:51:34;;;;;;;8.43;3.72;;;14.50;99.90;;;;;;4960484;28;20066;-83
2022/09/09 05:54:00;;;;;;;8.43;3.42;;;14.50;99.90;;;;;;4952631;28;20046;-81
2022/09/09 05:56:27;;;;;;;7.28;3.70;;;14.50;99.90;;;;;;4952264;28;20050;-82
2022/09/09 05:58:54;;;;;;;5.15;3.67;;;14.50;99.90;;;;;;5001824;28;20374;-80
2022/09/09 06:01:23;;;;;;;8.27;3.70;;;14.50;99.90;;;;;;4952648;28;20050;-82
2022/09/09 06:03:51;;;;;;;4.65;4.00;;;14.50;99.90;;;;;;4981707;28;20039;-80
2022/09/09 06:06:22;;;;;;;4.78;3.42;;;14.50;99.90;;;;;;4959646;28;20046;-81
2022/09/09 06:08:52;;;;;;;7.55;3.92;;;14.50;99.90;;;;;;4968675;28;20058;-80
2022/09/09 06:11:23;;;;;;;5.00;3.78;;;14.50;99.90;;;;;;4968509;28;20050;-80
2022/09/09 06:13:53;;;;;;;5.15;3.38;;;14.50;99.90;;;;;;4952108;28;20046;-80
2022/09/09 06:16:37;;;;;;;6.43;3.75;;;14.50;99.90;;;;;;4953305;28;20049;-80
2022/09/09 06:19:04;;;;;;;7.18;3.45;;;14.60;99.90;;;;;;4967571;28;20435;-79
2022/09/09 06:21:54;;;;;;;8.75;3.72;;;14.60;99.90;;;;;;4968869;28;20054;-79
2022/09/09 06:24:20;;;;;;;6.82;3.33;;;14.60;99.90;;;;;;4986863;28;20480;-80
2022/09/09 06:26:47;;;;;;;6.72;3.55;;;14.60;99.90;;;;;;4972030;28;20045;-80
2022/09/09 06:29:14;;;;;;;8.70;3.38;;;14.60;99.90;;;;;;4972129;28;20042;-79
2022/09/09 06:31:41;;;;;;;6.90;3.28;;;14.60;99.90;;;;;;4956444;28;20567;-79
2022/09/09 06:34:08;;;;;;;7.00;3.08;;;14.70;99.90;;;;;;4988185;28;20523;-79
2022/09/09 06:36:37;;;;;;;3.67;2.88;;;14.70;99.90;;;;;;5004218;28;20108;-79
2022/09/09 06:39:04;;;;;;;7.43;3.17;;;14.70;99.90;;;;;;4988293;28;20038;-78
2022/09/09 06:41:31;;;;;;;8.20;3.05;;;14.70;99.90;;;;;;4971795;28;20045;-78
2022/09/09 06:43:57;;;;;;;9.20;3.60;;;14.70;99.90;;;;;;5003831;28;20089;-78
2022/09/09 06:46:47;;;;;;;4.70;2.85;;;14.70;99.90;;;;;;4955396;28;20456;-79
2022/09/09 06:49:13;;;;;;;5.15;3.53;;;14.70;99.90;;;;;;4977292;28;20524;-79
2022/09/09 06:51:43;;;;;;;4.60;3.10;;;14.70;99.90;;;;;;5001296;28;20520;-79
2022/09/09 06:54:10;;;;;;;12.68;4.18;;;14.70;99.90;;;;;;4957014;28;20448;-78
2022/09/09 06:56:40;;;;;;;5.50;3.17;;;14.70;99.90;;;;;;4987477;28;20417;-79
2022/09/09 06:59:08;;;;;;;5.07;3.40;;;14.80;99.90;;;;;;4972661;28;20046;-78
2022/09/09 07:01:51;;;;;;;4.65;3.10;;;14.80;99.90;;;;;;4987039;28;20409;-79
2022/09/09 07:04:17;;;;;;;5.55;3.40;;;14.80;99.90;;;;;;4971104;28;20081;-79
2022/09/09 07:06:45;;;;;;;6.32;3.78;;;14.80;99.90;;;;;;4971166;28;20108;-78
2022/09/09 07:09:14;;;;;;;3.75;3.10;;;14.80;99.90;;;;;;4971419;28;20046;-81
2022/09/09 07:11:50;;;;;;;8.45;4.00;;;14.90;99.90;;;;;;4971487;28;20050;-79
2022/09/09 07:14:16;;;;;;;6.85;3.95;;;15.00;99.90;;;;;;4961930;28;20042;-79
2022/09/09 07:16:43;;;;;;;9.77;4.20;;;15.10;99.90;;;;;;4971906;28;20441;-78
2022/09/09 07:19:11;;;;;;;4.90;3.30;;;15.20;99.90;;;;;;4970484;28;20618;-79
2022/09/09 07:21:40;;;;;;;4.65;3.42;;;15.20;99.90;;;;;;4951955;28;20078;-78
2022/09/09 07:24:08;;;;;;;7.95;3.85;;;15.30;99.90;;;;;;4981773;28;20588;-77
2022/09/09 07:26:34;;;;;;;6.00;3.55;;;15.40;99.90;;;;;;4968390;28;20125;-79
2022/09/09 07:29:00;;;;;;;8.75;4.00;;;15.50;99.90;;;;;;4971807;28;20050;-77
2022/09/09 07:31:31;;;;;;;4.82;3.10;;;15.80;99.90;;;;;;4986406;28;20039;-77
2022/09/09 07:33:59;;;;;;;4.90;3.17;;;16.00;99.90;;;;;;4986928;28;20042;-77
2022/09/09 07:36:36;;;;;;;5.82;3.80;;;16.40;99.90;;;;;;4970658;28;20416;-78
2022/09/09 07:39:20;;;;;;;8.70;3.95;;;16.90;99.90;;;;;;4963528;28;20181;-77
2022/09/09 07:41:47;;;;;;;4.10;3.30;;;17.30;99.90;;;;;;4983046;28;20078;-77
2022/09/09 07:44:16;;;;;;;4.93;3.20;;;17.40;99.90;;;;;;4962447;28;20520;-76
2022/09/09 07:46:43;;;;;;;11.98;4.05;;;17.20;99.90;;;;;;4971417;28;20556;-76
2022/09/09 07:49:10;;;;;;;7.68;3.80;;;17.10;99.90;;;;;;4969961;28;20038;-76
2022/09/09 07:51:38;;;;;;;11.15;4.40;;;16.90;99.90;;;;;;4949378;28;20765;-76
2022/09/09 07:54:08;;;;;;;8.02;4.68;;;17.00;99.90;;;;;;4985238;28;20061;-75
2022/09/09 07:56:35;;;;;;;9.57;4.25;;;17.20;99.90;;;;;;4985785;28;20252;-75
2022/09/09 07:59:03;;;;;;;8.45;4.30;;;17.20;99.90;;;;;;4963048;28;20030;-77
2022/09/09 08:01:39;;;;;;;9.98;3.70;;;17.30;99.90;;;;;;4979064;28;20065;-77
2022/09/09 08:04:08;;;;;;;4.80;3.55;;;17.20;99.90;;;;;;4975929;28;20046;-76
2022/09/09 08:06:42;;;;;;;5.88;3.80;;;17.10;99.90;;;;;;4981196;28;20126;-76
2022/09/09 08:09:09;;;;;;;7.13;3.70;;;17.00;99.90;;;;;;4970522;28;20053;-75
2022/09/09 08:11:35;;;;;;;9.38;3.83;;;16.90;99.90;;;;;;4969453;28;20101;-75
2022/09/09 08:14:02;;;;;;;7.07;3.70;;;16.90;99.90;;;;;;4970145;28;20125;-76
2022/09/09 08:16:33;;;;;;;5.68;3.92;;;16.90;99.90;;;;;;4969900;28;20614;-75
2022/09/09 08:18:59;;;;;;;4.35;3.10;;;16.90;99.90;;;;;;4967022;28;20105;-76
2022/09/09 08:21:28;;;;;;;6.05;3.63;;;17.00;99.90;;;;;;4986346;28;20066;-75
2022/09/09 08:23:55;;;;;;;5.55;2.85;;;16.90;99.90;;;;;;4953567;28;20093;-75
2022/09/09 08:26:29;;;;;;;9.38;3.03;;;16.90;99.90;;;;;;4984215;28;20571;-75
2022/09/09 08:28:57;;;;;;;4.97;2.65;;;17.00;99.90;;;;;;5001246;28;20519;-75
2022/09/09 08:31:27;;;;;;;4.78;3.15;;;17.10;99.90;;;;;;4983296;28;20508;-76
2022/09/09 08:33:54;;;;;;;6.53;3.50;;;17.20;99.90;;;;;;4985864;28;20382;-75
2022/09/09 08:36:23;;;;;;;8.70;3.15;;;17.30;99.90;;;;;;5001286;28;20050;-75
2022/09/09 08:38:53;;;;;;;4.47;3.15;;;17.50;99.90;;;;;;4969618;28;20096;-75
2022/09/09 08:41:34;;;;;;;;;;;17.50;99.90;;;;;;4959752;28;20375;-75
2022/09/09 08:44:12;;;;;;;6.95;2.95;;;17.60;99.90;;;;;;4986200;28;20346;-75
2022/09/09 08:46:56;;;;;;;7.22;2.72;;;17.70;99.90;;;;;;4985465;28;20129;-74
2022/09/09 08:49:56;;;;;;;5.10;2.53;;;17.70;99.90;;;;;;4985105;28;20047;-75
2022/09/09 08:52:25;;;;;;;;;;;17.80;99.90;;;;;;4969499;28;20046;-76
2022/09/09 08:54:51;;;;;;;4.07;2.40;;;18.10;99.90;;;;;;4968415;28;20344;-76
2022/09/09 08:57:26;;;;;;;4.90;2.47;;;18.40;99.90;;;;;;4966458;28;20041;-75
2022/09/09 08:59:55;;;;;;;8.75;2.78;;;18.60;99.90;;;;;;4985441;28;20397;-75
2022/09/09 09:03:00;;;;;;;4.68;2.60;;;18.70;99.90;;;;;;4984497;28;20042;-76
2022/09/09 09:05:37;;;;;;;4.70;2.65;;;18.80;99.90;;;;;;4945346;28;20082;-76
2022/09/09 09:08:30;;;;;;;9.30;3.13;;;18.80;99.90;;;;;;4958276;28;20057;-75
2022/09/09 09:11:00;;;;;;;11.68;2.42;;;18.70;99.90;;;;;;4972743;28;20151;-75
2022/09/09 09:13:48;;;;;;;8.38;2.33;;;18.80;99.90;;;;;;4984033;28;20077;-76
2022/09/09 09:16:33;;;;;;;6.68;2.60;;;18.80;99.90;;;;;;4985296;28;20140;-76
2022/09/09 09:19:00;;;;;;;10.27;3.15;;;18.80;99.90;;;;;;4982556;28;20504;-76
2022/09/09 09:21:44;;;;;;;9.32;2.53;;;18.80;99.90;;;;;;4960849;28;20062;-75
2022/09/09 09:24:45;;;;;;;7.00;2.47;;;18.70;99.90;;;;;;4983939;28;20054;-76
2022/09/09 09:27:21;;;;;;;4.05;2.38;;;18.60;99.90;;;;;;4958429;28;20436;-75
2022/09/09 09:29:50;;;;;;;6.70;2.50;;;18.50;99.90;;;;;;4983841;28;20084;-76
2022/09/09 09:32:19;;;;;;;5.50;2.27;;;18.50;99.90;;;;;;4962380;28;20081;-76
2022/09/09 09:34:51;;;;;;;;;;;18.40;99.90;;;;;;4983064;28;20285;-76
2022/09/09 09:37:31;;;;;;;7.75;2.78;;;18.30;99.90;;;;;;4984512;28;20399;-75
2022/09/09 09:40:09;;;;;;;10.23;2.72;;;18.30;99.90;;;;;;4984789;28;20089;-75
2022/09/09 09:42:35;;;;;;;5.40;2.72;;;18.30;99.90;;;;;;5000283;28;20170;-76
2022/09/09 09:45:33;;;;;;;8.98;3.10;;;18.20;99.90;;;;;;4982212;28;20050;-76
2022/09/09 09:48:11;;;;;;;7.22;2.25;;;18.20;99.90;;;;;;4979530;28;20059;-76
2022/09/09 09:50:57;;;;;;;7.30;2.60;;;18.20;99.90;;;;;;4984437;28;20046;-76
2022/09/09 09:53:34;;;;;;;8.18;2.42;;;18.30;99.90;;;;;;4984920;28;20041;-77
2022/09/09 09:56:06;;;;;;;12.40;2.55;;;18.50;99.90;;;;;;4960449;28;20061;-75
2022/09/09 09:58:44;;;;;;;11.45;2.47;;;18.60;99.90;;;;;;4986989;28;20435;-76
2022/09/09 10:01:39;;;;;;;8.02;2.60;;;18.60;99.90;;;;;;4985803;28;20046;-75
2022/09/09 10:04:19;;;;;;;10.07;2.63;;;18.60;99.90;;;;;;4978534;28;20057;-75
2022/09/09 10:06:46;;;;;;;9.70;2.35;;;18.60;99.90;;;;;;4986571;28;20058;-76
2022/09/09 10:09:22;;;;;;;5.47;2.40;;;18.70;99.90;;;;;;5003680;28;20046;-76
2022/09/09 10:11:57;;;;;;;8.40;2.53;;;18.90;99.90;;;;;;4978910;28;20673;-76
2022/09/09 10:14:55;;;;;;;6.50;2.33;;;19.30;99.90;;;;;;4988925;28;20042;-76
2022/09/09 10:17:54;;;;;;;10.90;2.53;;;19.40;99.90;;;;;;4980560;28;20058;-76
2022/09/09 10:20:31;;;;;;;6.05;2.13;;;19.90;99.90;;;;;;4988516;28;20050;-76
2022/09/09 10:23:16;;;;;;;7.60;2.05;;;20.10;99.90;;;;;;4985258;28;20074;-75
2022/09/09 10:26:00;;;;;;;7.53;2.47;;;20.20;99.90;;;;;;4971407;28;20038;-76
2022/09/09 10:28:30;;;;;;;8.65;2.28;;;20.00;99.90;;;;;;4972022;28;20045;-76
2022/09/09 10:31:19;;;;;;;6.65;2.10;;;19.80;99.90;;;;;;4959977;28;20042;-77
2022/09/09 10:33:56;;;;;;;9.05;2.03;;;19.60;99.90;;;;;;4960888;28;20077;-78
2022/09/09 10:36:26;;;;;;;9.10;2.50;;;19.50;99.90;;;;;;4971331;28;20046;-76
2022/09/09 10:39:13;;;;;;;11.57;2.22;;;19.50;99.90;;;;;;4984709;28;20094;-75
2022/09/09 10:42:02;;;;;;;7.35;2.30;;;19.70;99.90;;;;;;4984822;28;20146;-76
2022/09/09 10:44:43;;;;;;;17.38;2.40;;;19.70;99.90;;;;;;4982906;28;20051;-76
2022/09/09 10:47:33;;;;;;;13.38;2.00;;;19.70;99.90;;;;;;4983327;28;20046;-76
2022/09/09 10:50:36;;;;;;;9.85;2.38;;;19.60;99.90;;;;;;4983821;28;20046;-74
2022/09/09 10:53:25;;;;;;;10.45;2.05;;;19.60;99.90;;;;;;4957435;28;20059;-75
2022/09/09 10:55:59;;;;;;;16.40;2.60;;;19.70;99.90;;;;;;4987200;28;20437;-76
2022/09/09 10:58:44;;;;;;;8.45;2.30;;;19.80;99.90;;;;;;4987665;28;20456;-77
2022/09/09 11:01:21;;;;;;;6.53;1.40;;;20.00;99.90;;;;;;4986819;28;20486;-76
2022/09/09 11:03:55;;;;;;;9.00;1.92;;;19.90;99.90;;;;;;4986726;28;20118;-75
2022/09/09 11:06:25;;;;;;;10.38;2.22;;;20.00;99.90;;;;;;4968459;28;20054;-75
2022/09/09 11:08:54;;;;;;;11.73;2.60;;;20.00;99.90;;;;;;4986250;28;20039;-75
2022/09/09 11:11:42;;;;;;;6.68;1.73;;;20.10;99.90;;;;;;4971317;28;20049;-76
2022/09/09 11:14:17;;;;;;;12.57;1.98;;;20.20;99.90;;;;;;4983846;28;20109;-75
2022/09/09 11:16:53;;;;;;;11.90;2.20;;;20.30;99.90;;;;;;4972523;28;20047;-76
2022/09/09 11:19:32;;;;;;;10.57;2.17;;;20.50;99.90;;;;;;4971264;28;20053;-75
2022/09/09 11:22:02;;;;;;;13.93;2.50;;;20.60;99.90;;;;;;4977093;28;21096;-76
2022/09/09 11:25:06;;;;;;;9.88;3.05;;;20.70;99.90;;;;;;4982405;28;20078;-76
2022/09/09 11:27:37;;;;;;;8.77;1.73;;;20.60;99.90;;;;;;4970733;28;20053;-77
2022/09/09 11:30:24;;;;;;;8.27;1.52;;;20.60;99.90;;;;;;4985949;28;20519;-75
2022/09/09 11:33:24;;;;;;;8.13;2.17;;;20.60;99.90;;;;;;4979493;28;20054;-75
2022/09/09 11:36:15;;;;;;;20.80;2.40;;;20.60;99.90;;;;;;4999131;28;20074;-75
2022/09/09 11:38:51;;;;;;;8.88;1.95;;;20.70;99.90;;;;;;4972803;28;20051;-76
2022/09/09 11:41:20;;;;;;;6.43;1.70;;;20.90;99.90;;;;;;4977471;28;20527;-75
2022/09/09 11:43:53;;;;;;;5.80;1.80;;;20.90;99.90;;;;;;4970404;28;20401;-74
2022/09/09 11:46:22;;;;;;;6.60;1.25;;;21.00;99.90;;;;;;4986738;28;20057;-75
2022/09/09 11:49:26;;;;;;;8.27;1.67;;;21.10;99.90;;;;;;4986623;28;20048;-74
2022/09/09 11:51:53;;;;;;;7.82;1.75;;;21.00;99.90;;;;;;4958197;28;20058;-74
2022/09/09 11:54:44;;;;;;;9.10;2.03;;;21.00;99.90;;;;;;4970586;28;20054;-75
2022/09/09 11:57:33;;;;;;;6.85;1.23;;;21.20;99.90;;;;;;4986975;28;20371;-75
2022/09/09 11:59:59;;;;;;;6.88;1.98;;;21.30;99.90;;;;;;4985767;28;20046;-75
2022/09/09 12:02:27;;;;;;;7.75;1.40;;;21.40;99.90;;;;;;4985936;28;20052;-74
2022/09/09 12:05:08;;;;;;;7.05;1.67;;;21.40;99.90;;;;;;4986478;28;20046;-75
2022/09/09 12:07:56;;;;;;;3.97;1.35;;;21.50;99.90;;;;;;4986608;28;20485;-75
2022/09/09 12:10:22;;;;;;;5.00;1.30;;;21.40;98.30;;;;;;4986845;28;20056;-75
2022/09/09 12:12:48;;;;;;;7.78;1.67;;;21.30;99.90;;;;;;4969168;28;20034;-75
2022/09/09 12:15:28;;;;;;;9.07;1.60;;;21.30;96.30;;;;;;4986472;28;20053;-75
2022/09/09 12:17:57;;;;;;;5.07;1.30;;;21.40;99.90;;;;;;4986289;28;20466;-74
2022/09/09 12:20:31;;;;;;;5.90;1.77;;;21.50;96.70;;;;;;5001623;28;20046;-76
2022/09/09 12:22:57;;;;;;;5.65;1.52;;;21.60;97.50;;;;;;4977884;28;20429;-77
2022/09/09 12:25:28;;;;;;;5.60;1.67;;;21.40;95.40;;;;;;4986276;28;20125;-75
2022/09/09 12:28:11;;;;;;;7.28;1.60;;;21.20;97.90;;;;;;4985827;28;20493;-76
2022/09/09 12:30:57;;;;;;;5.05;1.45;;;21.00;98.50;;;;;;4969546;28;20049;-75
2022/09/09 12:33:23;;;;;;;7.57;1.77;;;20.90;99.60;;;;;;5000385;28;20042;-75
2022/09/09 12:35:57;;;;;;;4.00;1.42;;;20.90;99.90;;;;;;4986210;28;20404;-78
2022/09/09 12:38:38;;;;;;;7.55;1.55;;;21.10;99.90;;;;;;4985672;28;20393;-76
2022/09/09 12:41:04;;;;;;;4.55;1.25;;;21.20;97.30;;;;;;4984265;28;20493;-79
2022/09/09 12:43:30;;;;;;;6.10;1.73;;;21.10;96.90;;;;;;4985753;28;20038;-75
2022/09/09 12:46:01;;;;;;;4.10;1.10;;;21.00;96.60;;;;;;4953180;28;20461;-76
2022/09/09 12:48:41;;;;;;;6.75;1.45;;;20.80;96.70;;;;;;4978486;28;20041;-76
2022/09/09 12:51:26;;;;;;;5.15;1.52;;;20.80;97.70;;;;;;4967469;28;20584;-75
2022/09/09 12:53:52;;;;;;;4.25;1.33;;;20.80;99.90;;;;;;5002211;28;20454;-75
2022/09/09 12:56:28;;;;;;;8.40;1.50;;;20.80;99.90;;;;;;4969298;28;20038;-75
2022/09/09 12:58:56;;;;;;;4.95;1.50;;;21.00;99.90;;;;;;4972157;28;20061;-75
2022/09/09 13:01:35;;;;;;;6.60;1.52;;;21.30;99.90;;;;;;4969171;28;20084;-76
2022/09/09 13:04:01;;;;;;;7.00;1.60;;;21.40;99.90;;;;;;4967921;28;20042;-75
2022/09/09 13:06:32;;;;;;;5.95;1.00;;;21.40;96.50;;;;;;4985336;28;20505;-75
2022/09/09 13:09:00;;;;;;;6.70;1.40;;;21.40;97.60;;;;;;4968581;28;20042;-75
2022/09/09 13:11:46;;;;;;;5.03;1.17;;;21.40;97.40;;;;;;4969574;28;20608;-76
2022/09/09 13:14:19;;;;;;;14.45;1.83;;;21.30;97.10;;;;;;4968589;28;20042;-74
2022/09/09 13:17:03;;;;;;;6.32;1.33;;;21.20;95.40;;;;;;4968914;28;20385;-76
2022/09/09 13:19:34;;;;;;;7.47;1.60;;;21.10;98.70;;;;;;4981993;28;20046;-76